Austin, TX (78759)

6:04 PM CDT on August 30, 2016 (GMT -0500)
Northwest Estates | | Change Station

Elev 774 ft 30.39 °N, 97.75 °W | Updated 4 seconds ago

Partly Cloudy
Partly Cloudy
90.7 °F
Feels Like 100 °F
N
0.0
Wind Variable Wind from North
Gusts 0.0 mph

Today
High -- | Low -- °F
--% Chance of Precip.
Yesterday
High -- | Low -- °F
Precip. -- in
Pressure 29.90 in
Visibility 10.0 miles
Clouds Few 4800 ft
Heat Index 100 °F
Dew Point 73 °F
Humidity 57%
Rainfall 0.00 in
Snow Depth Not available.
7:06 AM 7:55 PM
Waning Crescent, 2% visible
METAR KATT 302251Z AUTO VRB04KT 10SM FEW048 31/22 A2994 RMK AO2 SLP123 T03110217
Pressure 29.90 in
Visibility 10.0 miles
Clouds Few 4800 ft
Heat Index 100 °F
Dew Point 73 °F
Humidity 57%
Rainfall 0.00 in
Snow Depth Not available.
7:06 AM 7:55 PM
Waning Crescent, 2% visible
METAR KATT 302251Z AUTO VRB04KT 10SM FEW048 31/22 A2994 RMK AO2 SLP123 T03110217

10-Day Weather Forecast

Almanac

Astronomy

Aug. 30, 2016 Rise Set
Actual Time
Civil Twilight
Nautical Twilight
Astronomical Twilight
Moon
Length of Visible Light
Length of Day
Tomorrow will be .
, % of the Moon is Illuminated

Today's Extremes

State Highs State Lows

Community

WunderPhotos

Upload Photos

1,935,920 photos uploaded!

WunderBlog® & News

Nearby

Air Quality

  Air Quality AQ Index Pollutant
Not available.

Snow Depth

Station Depth Elevation

Earthquake Activity

City Distance Mag. Time & Date
Minimum magnitude displayed is 2.5.

Coastal Water Temperatures

Place Temperature

Stations

Nearby Weather Stations

Station Location Temp. Windchill Dew Point Humidity Wind Precip. Elev Updated Type
                   

Watches & Warnings

There are currently no watches in effect.